Time;durP1;ratioP1;P1;durP2;ratioP2;P2;SDS_P1;SDS_P2;PMS_P1;PMS_P2;Temp;Humidity;BMP_temperature;BMP_pressure;BME280_temperature;BME280_humidity;BME280_pressure;Samples;Min_cycle;Max_cycle;Signal;HPM_P1;HPM_P2
2024/01/29 00:02:21;;;;;;;14.70;8.45;;;22.70;42.30;;;;;;6154572;28;80402;-53
2024/01/29 00:05:22;;;;;;;12.82;8.50;;;22.70;42.30;;;;;;6155188;28;80360;-54
2024/01/29 00:08:22;;;;;;;14.32;8.57;;;22.70;42.40;;;;;;6155644;28;81347;-49
2024/01/29 00:11:24;;;;;;;14.98;8.68;;;22.70;42.70;;;;;;6167291;28;80425;-54
2024/01/29 00:14:25;;;;;;;13.60;9.38;;;22.70;42.70;;;;;;6155057;28;82269;-50
2024/01/29 00:17:25;;;;;;;16.35;8.85;;;22.70;42.70;;;;;;6153828;28;80448;-52
2024/01/29 00:20:26;;;;;;;14.57;9.20;;;22.60;42.50;;;;;;6168241;28;82475;-52
2024/01/29 00:23:26;;;;;;;13.95;9.27;;;22.70;42.60;;;;;;6153720;28;80361;-53
2024/01/29 00:26:27;;;;;;;16.45;9.30;;;22.70;42.10;;;;;;6153018;28;80394;-53
2024/01/29 00:29:27;;;;;;;16.40;9.65;;;22.60;42.80;;;;;;6153840;28;81000;-53
2024/01/29 00:32:28;;;;;;;17.25;10.70;;;22.60;42.30;;;;;;6152631;28;80344;-54
2024/01/29 00:35:28;;;;;;;15.45;10.25;;;22.60;42.10;;;;;;6158987;28;84309;-55
2024/01/29 00:38:29;;;;;;;17.90;9.98;;;22.60;41.90;;;;;;6163158;28;84410;-55
2024/01/29 00:41:29;;;;;;;15.65;10.07;;;22.60;41.90;;;;;;6158913;28;83193;-53
2024/01/29 00:44:30;;;;;;;19.05;11.15;;;22.60;41.90;;;;;;6174067;28;82741;-50
2024/01/29 00:47:31;;;;;;;15.40;9.68;;;22.60;41.90;;;;;;6172821;28;84573;-54
2024/01/29 00:50:31;;;;;;;16.17;10.18;;;22.60;42.10;;;;;;6174989;28;82921;-53
2024/01/29 00:53:31;;;;;;;15.35;10.25;;;22.70;41.90;;;;;;6162073;28;82880;-52
2024/01/29 00:56:32;;;;;;;16.30;10.30;;;22.60;41.80;;;;;;6160296;28;83501;-52
2024/01/29 00:59:32;;;;;;;17.08;10.63;;;22.60;41.90;;;;;;6171728;28;85945;-52
2024/01/29 01:02:33;;;;;;;18.17;10.38;;;22.60;41.90;;;;;;6160136;28;82811;-57
2024/01/29 01:05:33;;;;;;;15.10;9.45;;;22.60;42.00;;;;;;6154861;28;83379;-55
2024/01/29 01:08:34;;;;;;;12.50;9.20;;;22.60;42.00;;;;;;6169359;28;83634;-53
2024/01/29 01:11:34;;;;;;;16.00;10.20;;;22.60;41.90;;;;;;6162694;28;80476;-53
2024/01/29 01:14:35;;;;;;;16.60;9.52;;;22.60;42.10;;;;;;6149523;28;83053;-53
2024/01/29 01:17:35;;;;;;;14.77;9.93;;;22.60;42.00;;;;;;6153630;28;83194;-48
2024/01/29 01:20:36;;;;;;;15.45;9.30;;;22.60;42.20;;;;;;6175168;28;83086;-46
2024/01/29 01:23:38;;;;;;;16.42;9.75;;;22.60;42.10;;;;;;6155802;28;83913;-49
2024/01/29 01:26:38;;;;;;;14.65;9.73;;;22.60;42.20;;;;;;6170280;28;81486;-48
2024/01/29 01:29:39;;;;;;;15.40;9.30;;;22.60;42.10;;;;;;6174501;28;80652;-47
2024/01/29 01:32:40;;;;;;;14.88;9.50;;;22.60;42.20;;;;;;6167676;28;80176;-49
2024/01/29 01:35:40;;;;;;;13.93;8.68;;;22.60;42.10;;;;;;6164895;28;80243;-49
2024/01/29 01:38:40;;;;;;;12.50;8.18;;;22.60;42.40;;;;;;6178202;28;81173;-46
2024/01/29 01:41:41;;;;;;;13.15;8.90;;;22.50;42.10;;;;;;6175855;28;83559;-47
2024/01/29 01:44:41;;;;;;;12.93;8.90;;;22.60;42.30;;;;;;6177625;28;81155;-48
2024/01/29 01:47:42;;;;;;;14.70;9.45;;;22.60;42.30;;;;;;6180675;28;80714;-46
2024/01/29 01:50:42;;;;;;;15.43;9.25;;;22.60;42.50;;;;;;6179190;28;80709;-47
2024/01/29 01:53:43;;;;;;;15.27;9.68;;;22.60;42.30;;;;;;6179923;28;80210;-51
2024/01/29 01:56:44;;;;;;;14.82;9.70;;;22.60;42.20;;;;;;6180372;28;80913;-48
2024/01/29 01:59:44;;;;;;;13.25;9.43;;;22.60;42.20;;;;;;6169314;28;82651;-47
2024/01/29 02:02:45;;;;;;;15.98;10.02;;;22.60;42.40;;;;;;6155596;28;84045;-48
2024/01/29 02:05:45;;;;;;;16.02;9.18;;;22.60;42.50;;;;;;6172701;28;83718;-49
2024/01/29 02:08:46;;;;;;;13.48;9.00;;;22.60;42.60;;;;;;6180169;28;83550;-48
2024/01/29 02:11:46;;;;;;;13.55;8.98;;;22.50;42.20;;;;;;6167033;28;80948;-65
2024/01/29 02:14:47;;;;;;;14.40;9.15;;;22.60;42.20;;;;;;6179349;28;80255;-64
2024/01/29 02:17:47;;;;;;;13.63;9.43;;;22.60;42.50;;;;;;6180009;28;80988;-65
2024/01/29 02:20:48;;;;;;;14.88;9.98;;;22.50;42.60;;;;;;6178988;28;83942;-66
2024/01/29 02:23:48;;;;;;;12.93;8.30;;;22.50;42.30;;;;;;6176861;28;83207;-66
2024/01/29 02:26:49;;;;;;;12.88;8.00;;;22.50;42.50;;;;;;6165876;28;84311;-66
2024/01/29 02:29:50;;;;;;;12.85;8.48;;;22.60;42.50;;;;;;6158123;28;86473;-45
2024/01/29 02:32:50;;;;;;;13.20;8.45;;;22.50;42.50;;;;;;6155039;28;81381;-47
2024/01/29 02:35:50;;;;;;;11.63;8.07;;;22.50;42.40;;;;;;6168384;28;80548;-49
2024/01/29 02:38:51;;;;;;;14.32;9.23;;;22.50;42.70;;;;;;6168402;28;80598;-50
2024/01/29 02:41:52;;;;;;;11.60;7.70;;;22.50;42.60;;;;;;6168522;28;81609;-50
2024/01/29 02:44:52;;;;;;;13.35;7.70;;;22.50;42.40;;;;;;6164967;28;80645;-50
2024/01/29 02:47:53;;;;;;;11.77;8.35;;;22.50;42.30;;;;;;6158499;28;83622;-46
2024/01/29 02:50:53;;;;;;;13.80;8.30;;;22.60;42.40;;;;;;6159601;28;81723;-49
2024/01/29 02:53:54;;;;;;;12.30;7.75;;;22.50;42.30;;;;;;6164030;28;84928;-49
2024/01/29 02:56:55;;;;;;;13.45;8.88;;;22.60;42.30;;;;;;6156285;28;81187;-48
2024/01/29 02:59:55;;;;;;;10.40;7.18;;;22.60;42.20;;;;;;6156244;28;80388;-51
2024/01/29 03:02:57;;;;;;;11.18;8.27;;;22.60;42.10;;;;;;6178115;28;80500;-48
2024/01/29 03:05:57;;;;;;;11.77;7.85;;;22.50;42.10;;;;;;6158507;28;80415;-65
2024/01/29 03:08:58;;;;;;;15.40;8.07;;;22.60;42.10;;;;;;6156438;28;80763;-65
2024/01/29 03:11:58;;;;;;;12.95;8.02;;;22.50;42.10;;;;;;6156672;28;81566;-64
2024/01/29 03:14:59;;;;;;;10.68;7.63;;;22.50;42.20;;;;;;6155461;28;80523;-62
2024/01/29 03:17:59;;;;;;;10.15;7.03;;;22.50;42.40;;;;;;6155828;28;80515;-62
2024/01/29 03:21:00;;;;;;;9.50;6.68;;;22.50;42.70;;;;;;6155932;28;82063;-64
2024/01/29 03:24:00;;;;;;;11.88;7.63;;;22.50;42.90;;;;;;6159685;28;80502;-63
2024/01/29 03:27:01;;;;;;;12.07;7.18;;;22.50;42.80;;;;;;6156430;28;80305;-65
2024/01/29 03:30:01;;;;;;;10.10;6.47;;;22.50;42.90;;;;;;6155366;28;80410;-65
2024/01/29 03:33:02;;;;;;;13.32;7.90;;;22.50;43.10;;;;;;6155870;28;80566;-65
2024/01/29 03:36:02;;;;;;;12.35;8.20;;;22.50;42.60;;;;;;6155892;28;80477;-67
2024/01/29 03:39:03;;;;;;;9.35;6.82;;;22.50;43.20;;;;;;6166385;28;81011;-64
2024/01/29 03:42:04;;;;;;;10.85;8.07;;;22.50;42.50;;;;;;6167604;28;80504;-66
2024/01/29 03:45:04;;;;;;;13.27;8.77;;;22.50;42.30;;;;;;6154579;28;80355;-71
2024/01/29 03:48:05;;;;;;;11.65;7.85;;;22.50;42.10;;;;;;6154911;28;82092;-72
2024/01/29 03:51:05;;;;;;;14.13;8.35;;;22.50;42.10;;;;;;6173779;28;81109;-70
2024/01/29 03:54:06;;;;;;;10.93;6.82;;;22.50;41.90;;;;;;6177256;28;80693;-69
2024/01/29 03:57:06;;;;;;;12.18;6.97;;;22.50;42.60;;;;;;6177246;28;80668;-69
2024/01/29 04:00:07;;;;;;;9.80;6.72;;;22.50;43.10;;;;;;6162134;28;80840;-70
2024/01/29 04:03:11;;;;;;;10.82;7.32;;;22.50;42.90;;;;;;6156042;28;80379;-70
2024/01/29 04:06:12;;;;;;;10.02;7.00;;;22.50;42.50;;;;;;6159972;28;80732;-67
2024/01/29 04:09:19;;;;;;;13.35;8.05;;;22.50;42.40;;;;;;6164287;28;81292;-65
2024/01/29 04:12:19;;;;;;;10.48;7.15;;;22.50;42.20;;;;;;6153582;28;80420;-66
2024/01/29 04:15:20;;;;;;;10.00;6.65;;;22.50;43.70;;;;;;6154420;28;81042;-63
2024/01/29 04:18:20;;;;;;;11.38;7.53;;;22.50;42.60;;;;;;6153414;28;80331;-66
2024/01/29 04:21:21;;;;;;;12.68;7.05;;;22.50;42.20;;;;;;6157471;28;80972;-71
2024/01/29 04:24:21;;;;;;;12.13;7.65;;;22.50;41.80;;;;;;6163042;28;81715;-68
2024/01/29 04:27:22;;;;;;;12.40;7.38;;;22.50;41.40;;;;;;6174463;28;80433;-65
2024/01/29 04:30:22;;;;;;;11.88;7.68;;;22.60;41.10;;;;;;6174481;28;80283;-68
2024/01/29 04:33:23;;;;;;;10.93;7.68;;;22.60;40.70;;;;;;6175548;28;80354;-65
2024/01/29 04:36:23;;;;;;;12.93;7.97;;;22.60;40.50;;;;;;6158107;28;81524;-70
2024/01/29 04:39:24;;;;;;;10.80;7.60;;;22.70;40.50;;;;;;6161375;28;80532;-67
2024/01/29 04:42:24;;;;;;;12.27;7.35;;;22.70;40.50;;;;;;6159163;28;85456;-70
2024/01/29 04:45:25;;;;;;;13.20;8.35;;;22.70;40.20;;;;;;6159729;28;81172;-65
2024/01/29 04:48:25;;;;;;;10.63;7.00;;;22.80;40.10;;;;;;6158188;28;80945;-63
2024/01/29 04:51:26;;;;;;;11.05;6.90;;;22.80;40.20;;;;;;6166699;28;79879;-65
2024/01/29 04:54:27;;;;;;;11.18;7.40;;;22.80;39.90;;;;;;6174410;28;83973;-65
2024/01/29 04:57:28;;;;;;;12.93;8.50;;;22.80;40.10;;;;;;6170353;28;81600;-53
2024/01/29 05:00:28;;;;;;;12.13;7.60;;;22.80;39.70;;;;;;6167609;28;80595;-55
2024/01/29 05:03:29;;;;;;;13.60;7.53;;;22.90;39.80;;;;;;6169400;28;80466;-56
2024/01/29 05:06:29;;;;;;;21.17;7.05;;;22.90;39.80;;;;;;6172052;28;80918;-56
2024/01/29 05:09:30;;;;;;;16.73;8.25;;;22.90;40.90;;;;;;6172597;28;81366;-58
2024/01/29 05:12:31;;;;;;;14.77;8.38;;;22.90;40.30;;;;;;6157613;28;81675;-53
2024/01/29 05:15:34;;;;;;;12.68;7.50;;;23.00;40.30;;;;;;6166457;28;80419;-66
2024/01/29 05:18:34;;;;;;;11.35;8.07;;;23.00;40.40;;;;;;6164049;28;80920;-70
2024/01/29 05:21:35;;;;;;;11.43;7.63;;;23.00;40.90;;;;;;6170507;28;81065;-69
2024/01/29 05:24:35;;;;;;;16.95;7.85;;;23.10;41.40;;;;;;6162263;28;81602;-65
2024/01/29 05:27:36;;;;;;;11.95;7.85;;;23.10;41.70;;;;;;6161055;28;80627;-67
2024/01/29 05:30:36;;;;;;;11.70;8.10;;;23.10;41.20;;;;;;6160666;28;81270;-76
2024/01/29 05:33:37;;;;;;;13.75;8.63;;;23.10;40.80;;;;;;6158343;28;80918;-50
2024/01/29 05:36:37;;;;;;;21.02;8.57;;;23.10;40.40;;;;;;6161343;28;80921;-49
2024/01/29 05:39:38;;;;;;;12.13;8.90;;;23.10;40.20;;;;;;6162257;28;81025;-48
2024/01/29 05:42:38;;;;;;;18.13;10.43;;;23.10;40.00;;;;;;6166186;28;81238;-51
2024/01/29 05:45:39;;;;;;;15.55;8.43;;;23.10;39.80;;;;;;6163009;28;82819;-50
2024/01/29 05:48:39;;;;;;;17.30;8.40;;;23.10;39.50;;;;;;6166293;28;83256;-51
2024/01/29 05:51:40;;;;;;;15.18;9.73;;;23.00;39.40;;;;;;6176617;28;81775;-65
2024/01/29 05:54:40;;;;;;;16.33;10.45;;;23.00;39.50;;;;;;6175848;28;80405;-67
2024/01/29 05:57:41;;;;;;;16.92;10.20;;;23.00;39.30;;;;;;6167388;28;83000;-68
2024/01/29 06:00:41;;;;;;;15.40;9.85;;;23.00;39.30;;;;;;6171386;28;83260;-68
2024/01/29 06:03:42;;;;;;;16.13;10.75;;;22.90;39.20;;;;;;6170378;28;83524;-67
2024/01/29 06:06:43;;;;;;;16.83;10.80;;;22.90;39.00;;;;;;6146864;28;83003;-66
2024/01/29 06:09:43;;;;;;;16.45;10.73;;;22.90;38.90;;;;;;6146775;28;85287;-51
2024/01/29 06:12:44;;;;;;;14.98;11.50;;;22.80;38.80;;;;;;6149836;28;86096;-47
2024/01/29 06:15:44;;;;;;;16.77;10.63;;;22.80;38.80;;;;;;6151938;28;90515;-49
2024/01/29 06:18:45;;;;;;;14.30;10.60;;;22.80;38.70;;;;;;6148443;28;84062;-50
2024/01/29 06:21:45;;;;;;;15.90;10.93;;;22.80;38.50;;;;;;6148736;28;83267;-49
2024/01/29 06:24:46;;;;;;;16.92;11.95;;;22.70;38.60;;;;;;6149596;28;82885;-47
2024/01/29 06:27:47;;;;;;;17.38;10.38;;;22.70;38.40;;;;;;6158152;28;83398;-45
2024/01/29 06:30:47;;;;;;;18.38;12.05;;;22.60;38.50;;;;;;6162550;28;83998;-48
2024/01/29 06:33:48;;;;;;;22.23;12.60;;;22.60;38.50;;;;;;6151931;28;83231;-47
2024/01/29 06:36:48;;;;;;;19.85;13.02;;;22.60;38.20;;;;;;6156848;28;84418;-47
2024/01/29 06:39:48;;;;;;;20.33;11.90;;;22.60;38.00;;;;;;6157789;28;82993;-46
2024/01/29 06:42:49;;;;;;;18.50;11.75;;;22.50;38.00;;;;;;6159334;28;83599;-47
2024/01/29 06:45:50;;;;;;;20.65;13.07;;;22.50;37.70;;;;;;6159537;28;85809;-51
2024/01/29 06:48:50;;;;;;;19.70;12.75;;;22.40;37.60;;;;;;6158873;28;83587;-46
2024/01/29 06:51:51;;;;;;;18.55;12.30;;;22.40;37.50;;;;;;6159749;28;86911;-51
2024/01/29 06:54:52;;;;;;;19.15;13.05;;;22.40;37.80;;;;;;6163765;28;83637;-51
2024/01/29 06:57:53;;;;;;;20.38;12.50;;;22.40;37.80;;;;;;6156246;28;82850;-46
2024/01/29 07:00:54;;;;;;;18.83;12.25;;;22.30;37.70;;;;;;6155989;28;84062;-46
2024/01/29 07:03:55;;;;;;;21.65;13.65;;;22.30;37.50;;;;;;6168979;28;84021;-48
2024/01/29 07:06:55;;;;;;;16.90;13.00;;;22.30;37.40;;;;;;6165937;28;83331;-66
2024/01/29 07:09:56;;;;;;;20.35;13.43;;;22.30;37.60;;;;;;6170751;28;83127;-69
2024/01/29 07:12:56;;;;;;;20.67;13.25;;;22.30;37.60;;;;;;6160055;28;83169;-70
2024/01/29 07:15:58;;;;;;;17.80;11.60;;;22.30;37.40;;;;;;6170470;28;83483;-68
2024/01/29 07:18:58;;;;;;;17.90;11.38;;;22.30;37.40;;;;;;6174610;28;84464;-69
2024/01/29 07:21:59;;;;;;;16.60;11.75;;;22.40;37.50;;;;;;6165286;28;89652;-66
2024/01/29 07:24:59;;;;;;;15.25;10.70;;;22.40;37.80;;;;;;6167423;28;84062;-49
2024/01/29 07:28:02;;;;;;;15.88;11.00;;;22.40;38.10;;;;;;6160906;28;87458;-49
2024/01/29 07:31:02;;;;;;;19.92;10.48;;;22.50;37.90;;;;;;6141135;28;87030;-47
2024/01/29 07:34:03;;;;;;;15.57;9.85;;;22.50;37.70;;;;;;6166575;28;83655;-49
2024/01/29 07:37:04;;;;;;;15.52;10.07;;;22.50;37.80;;;;;;6171142;28;82919;-47
2024/01/29 07:40:04;;;;;;;18.42;11.45;;;22.50;37.90;;;;;;6161763;28;83028;-46
2024/01/29 07:43:05;;;;;;;16.00;10.23;;;22.50;38.00;;;;;;6170453;28;86644;-52
2024/01/29 07:46:07;;;;;;;15.82;9.10;;;22.60;37.80;;;;;;6164760;28;84779;-49
2024/01/29 07:49:09;;;;;;;14.90;9.85;;;22.60;37.50;;;;;;6163910;28;82988;-51
2024/01/29 07:52:10;;;;;;;14.90;9.55;;;22.60;36.90;;;;;;6170051;28;81579;-53
2024/01/29 07:55:10;;;;;;;15.27;10.02;;;22.70;36.60;;;;;;6174898;28;80450;-50
2024/01/29 07:58:11;;;;;;;14.70;9.77;;;22.80;36.70;;;;;;6170900;28;83245;-48
2024/01/29 08:01:11;;;;;;;14.45;9.07;;;22.80;36.70;;;;;;6175924;28;82967;-49
2024/01/29 08:04:12;;;;;;;15.02;9.25;;;22.90;37.00;;;;;;6174686;28;80637;-52
2024/01/29 08:07:12;;;;;;;12.57;8.38;;;22.90;37.10;;;;;;6169071;28;81226;-51
2024/01/29 08:10:13;;;;;;;13.13;8.80;;;22.90;37.20;;;;;;6172447;28;83398;-51
2024/01/29 08:13:14;;;;;;;13.18;9.38;;;23.00;37.20;;;;;;6159484;28;83352;-49
2024/01/29 08:16:15;;;;;;;13.52;8.82;;;23.10;37.30;;;;;;6174309;28;80787;-49
2024/01/29 08:19:16;;;;;;;11.65;8.40;;;23.10;37.30;;;;;;6166919;28;83192;-65
2024/01/29 08:22:17;;;;;;;14.15;8.73;;;23.10;37.30;;;;;;6169509;28;81890;-65
2024/01/29 08:25:17;;;;;;;13.40;9.43;;;23.20;37.50;;;;;;6148927;28;82070;-66
2024/01/29 08:28:18;;;;;;;13.07;9.05;;;23.20;37.50;;;;;;6163904;28;83514;-66
2024/01/29 08:31:18;;;;;;;12.52;9.20;;;23.30;37.50;;;;;;6162226;28;80912;-65
2024/01/29 08:34:19;;;;;;;14.15;9.65;;;23.30;37.50;;;;;;6174884;28;81110;-65
2024/01/29 08:37:19;;;;;;;12.82;9.82;;;23.30;37.10;;;;;;6161127;28;81305;-66
2024/01/29 08:40:20;;;;;;;13.63;9.82;;;23.40;37.20;;;;;;6154369;28;80563;-66
2024/01/29 08:43:20;;;;;;;15.02;10.18;;;23.50;37.10;;;;;;6167692;28;80562;-66
2024/01/29 08:46:21;;;;;;;14.52;9.75;;;23.50;37.10;;;;;;6162652;28;84462;-65
2024/01/29 08:49:22;;;;;;;14.98;10.13;;;23.60;37.10;;;;;;6167387;28;82909;-65
2024/01/29 08:52:22;;;;;;;14.75;9.93;;;23.60;37.10;;;;;;6166159;28;82979;-66
2024/01/29 08:55:23;;;;;;;17.25;9.43;;;23.70;37.20;;;;;;6167620;28;83139;-50
2024/01/29 08:58:24;;;;;;;14.77;9.07;;;23.80;37.10;;;;;;6165223;28;80938;-50
2024/01/29 09:01:25;;;;;;;13.38;9.45;;;23.80;37.10;;;;;;6168622;28;83176;-52
2024/01/29 09:04:26;;;;;;;12.75;10.10;;;23.90;37.10;;;;;;6168798;28;81130;-51
2024/01/29 09:07:27;;;;;;;13.70;9.45;;;24.00;37.10;;;;;;6164801;28;84192;-52
2024/01/29 09:10:27;;;;;;;16.25;9.18;;;24.10;37.10;;;;;;6172134;28;84171;-56
2024/01/29 09:13:28;;;;;;;15.50;10.02;;;24.10;37.10;;;;;;6172744;28;80315;-73
2024/01/29 09:16:28;;;;;;;13.15;8.88;;;24.20;37.20;;;;;;6162122;28;86183;-62
2024/01/29 09:19:29;;;;;;;12.30;8.23;;;24.30;37.30;;;;;;6168368;28;83762;-65
2024/01/29 09:22:29;;;;;;;13.52;8.90;;;24.30;37.30;;;;;;6163676;28;83877;-63
2024/01/29 09:25:30;;;;;;;11.98;9.18;;;24.30;37.30;;;;;;6166396;28;80415;-63
2024/01/29 09:28:30;;;;;;;11.38;8.20;;;24.40;37.50;;;;;;6168272;28;80931;-65
2024/01/29 09:31:32;;;;;;;11.85;8.77;;;24.40;37.50;;;;;;6159584;28;81636;-66
2024/01/29 09:34:33;;;;;;;14.80;9.55;;;24.40;37.50;;;;;;6165327;28;80785;-66
2024/01/29 09:37:34;;;;;;;11.90;8.20;;;24.50;37.60;;;;;;6164132;28;81307;-65
2024/01/29 09:40:34;;;;;;;14.70;8.77;;;24.40;37.60;;;;;;6162564;28;80466;-66
2024/01/29 09:43:38;;;;;;;13.90;9.30;;;24.50;37.70;;;;;;6166107;28;80343;-65
2024/01/29 09:46:38;;;;;;;13.77;8.88;;;24.50;37.80;;;;;;6172514;28;82134;-65
2024/01/29 09:49:39;;;;;;;14.50;8.93;;;24.60;37.80;;;;;;6171981;28;80918;-66
2024/01/29 09:52:39;;;;;;;10.95;8.73;;;24.60;37.80;;;;;;6168666;28;80619;-65
2024/01/29 09:55:40;;;;;;;12.20;8.63;;;24.70;37.70;;;;;;6166855;28;80973;-64
2024/01/29 09:58:41;;;;;;;13.60;8.77;;;24.70;37.70;;;;;;6165707;28;81911;-64
2024/01/29 10:01:41;;;;;;;12.07;8.75;;;24.80;37.80;;;;;;6172530;28;83635;-64
2024/01/29 10:04:42;;;;;;;14.52;8.80;;;24.70;37.70;;;;;;6174611;28;80687;-65
2024/01/29 10:07:42;;;;;;;14.45;9.23;;;24.80;37.70;;;;;;6175556;28;80182;-65
2024/01/29 10:10:43;;;;;;;12.57;8.05;;;24.80;37.70;;;;;;6173533;28;81374;-74
2024/01/29 10:13:43;;;;;;;12.52;9.50;;;24.80;37.60;;;;;;6173814;28;80850;-72
2024/01/29 10:16:44;;;;;;;13.68;9.38;;;24.80;37.60;;;;;;6175218;28;80581;-71
2024/01/29 10:19:47;;;;;;;13.88;9.25;;;24.90;37.70;;;;;;6175577;28;80612;-76
2024/01/29 10:22:48;;;;;;;13.60;9.48;;;24.90;37.70;;;;;;6176772;28;81012;-70
2024/01/29 10:25:49;;;;;;;13.93;9.38;;;24.90;37.80;;;;;;6173612;28;80418;-70
2024/01/29 10:28:49;;;;;;;15.48;9.68;;;25.00;37.90;;;;;;6176097;28;80754;-46
2024/01/29 10:31:50;;;;;;;13.63;9.00;;;25.10;37.90;;;;;;6166640;28;86337;-52
2024/01/29 10:34:50;;;;;;;13.50;9.90;;;25.10;37.90;;;;;;6163989;28;80737;-50
2024/01/29 10:37:51;;;;;;;11.35;8.75;;;25.20;37.90;;;;;;6169907;28;80320;-50
2024/01/29 10:40:51;;;;;;;12.98;8.88;;;25.20;37.80;;;;;;6169991;28;81757;-50
2024/01/29 10:43:52;;;;;;;10.50;8.25;;;25.30;37.80;;;;;;6168834;28;80680;-48
2024/01/29 10:46:52;;;;;;;12.55;8.30;;;25.50;37.80;;;;;;6173051;28;80172;-49
2024/01/29 10:49:53;;;;;;;11.60;8.77;;;25.50;37.60;;;;;;6174267;28;80926;-51
2024/01/29 10:52:53;;;;;;;11.90;8.38;;;25.70;37.60;;;;;;6171459;28;81836;-53
2024/01/29 10:55:54;;;;;;;12.20;8.88;;;25.70;37.50;;;;;;6163298;28;80863;-53
2024/01/29 10:58:58;;;;;;;11.13;8.20;;;25.80;37.40;;;;;;6169425;28;81803;-52
2024/01/29 11:01:58;;;;;;;10.35;7.85;;;25.90;37.50;;;;;;6164840;28;80922;-52
2024/01/29 11:04:59;;;;;;;13.18;8.32;;;25.90;37.50;;;;;;6166067;28;81254;-53
2024/01/29 11:07:59;;;;;;;11.07;8.70;;;25.90;37.60;;;;;;6170938;28;83153;-53
2024/01/29 11:11:00;;;;;;;12.98;8.05;;;26.00;37.50;;;;;;6169807;28;88062;-52
2024/01/29 11:14:01;;;;;;;12.55;8.57;;;26.00;37.50;;;;;;6170774;28;80900;-53
2024/01/29 11:17:01;;;;;;;12.73;8.48;;;26.00;37.60;;;;;;6176269;28;80631;-54
2024/01/29 11:20:02;;;;;;;12.05;8.40;;;26.00;37.50;;;;;;6176378;28;80392;-52
2024/01/29 11:23:03;;;;;;;11.57;8.50;;;26.10;37.50;;;;;;6173976;28;81973;-64
2024/01/29 11:26:05;;;;;;;12.63;8.55;;;26.10;37.50;;;;;;6171456;28;80462;-65
2024/01/29 11:29:06;;;;;;;13.48;8.52;;;26.10;37.60;;;;;;6165988;28;80799;-66
2024/01/29 11:32:07;;;;;;;12.35;8.80;;;26.20;37.60;;;;;;6168204;28;82005;-64
2024/01/29 11:35:07;;;;;;;12.05;8.52;;;26.20;37.60;;;;;;6151773;28;81448;-65
2024/01/29 11:38:08;;;;;;;11.82;7.97;;;26.20;37.70;;;;;;6165602;28;80700;-65
2024/01/29 11:41:08;;;;;;;11.77;8.45;;;26.20;37.50;;;;;;6176895;28;82604;-66
2024/01/29 11:44:09;;;;;;;11.90;8.32;;;26.20;37.60;;;;;;6173479;28;81544;-64
2024/01/29 11:47:09;;;;;;;11.80;8.40;;;26.30;37.50;;;;;;6155713;28;80604;-65
2024/01/29 11:50:10;;;;;;;12.07;8.88;;;26.30;37.40;;;;;;6170927;28;80745;-67
2024/01/29 11:53:10;;;;;;;11.13;8.57;;;26.30;37.40;;;;;;6174595;28;80720;-64
2024/01/29 11:56:11;;;;;;;10.35;7.45;;;26.40;38.00;;;;;;6174925;28;80558;-66
2024/01/29 11:59:12;;;;;;;14.90;8.73;;;26.40;37.30;;;;;;6167593;28;81953;-54
2024/01/29 12:02:13;;;;;;;10.57;8.23;;;26.50;37.40;;;;;;6162512;28;80892;-49
2024/01/29 12:05:13;;;;;;;13.68;8.63;;;26.40;37.30;;;;;;6163383;28;80508;-55
2024/01/29 12:08:14;;;;;;;12.40;8.23;;;26.50;37.50;;;;;;6174869;28;86312;-54
2024/01/29 12:11:15;;;;;;;11.63;7.90;;;26.60;37.40;;;;;;6163705;28;80824;-51
2024/01/29 12:14:16;;;;;;;10.75;8.10;;;26.60;37.60;;;;;;6157125;28;80750;-52
2024/01/29 12:17:16;;;;;;;10.45;7.88;;;26.60;37.50;;;;;;6173903;28;81622;-53
2024/01/29 12:20:17;;;;;;;11.10;7.55;;;26.70;37.70;;;;;;6168954;28;80329;-52
2024/01/29 12:23:17;;;;;;;11.70;8.10;;;26.70;37.70;;;;;;6170592;28;80547;-54
2024/01/29 12:26:18;;;;;;;11.13;7.32;;;26.80;37.80;;;;;;6173960;28;80953;-53
2024/01/29 12:29:18;;;;;;;11.25;8.07;;;26.80;37.70;;;;;;6164335;28;81544;-53
2024/01/29 12:32:20;;;;;;;9.82;7.22;;;26.80;37.60;;;;;;6160298;28;81493;-54
2024/01/29 12:35:21;;;;;;;9.40;7.20;;;26.80;37.60;;;;;;6163707;28;82567;-52
2024/01/29 12:38:22;;;;;;;12.52;7.28;;;26.90;37.60;;;;;;6173398;28;81341;-66
2024/01/29 12:41:23;;;;;;;10.07;7.53;;;26.90;37.60;;;;;;6172563;28;80621;-68
2024/01/29 12:44:23;;;;;;;11.00;7.07;;;27.00;37.50;;;;;;6168081;28;80778;-67
2024/01/29 12:47:24;;;;;;;9.45;6.85;;;27.00;37.40;;;;;;6168059;28;80276;-66
2024/01/29 12:50:24;;;;;;;10.68;7.38;;;27.00;37.40;;;;;;6168527;28;80957;-68
2024/01/29 12:53:25;;;;;;;11.52;7.25;;;27.00;37.40;;;;;;6176664;28;80801;-67
2024/01/29 12:56:27;;;;;;;10.50;7.07;;;27.10;37.20;;;;;;6171845;28;80274;-65
2024/01/29 12:59:28;;;;;;;12.10;7.72;;;27.20;37.30;;;;;;6163584;28;81890;-67
2024/01/29 13:02:29;;;;;;;12.88;9.55;;;27.20;37.20;;;;;;6167562;28;80870;-66
2024/01/29 13:05:29;;;;;;;50.83;41.67;;;27.30;37.20;;;;;;6165967;28;80778;-66
2024/01/29 13:08:30;;;;;;;89.43;70.45;;;27.40;37.10;;;;;;6167293;28;83942;-65
2024/01/29 13:11:30;;;;;;;82.68;67.13;;;27.50;36.70;;;;;;6171253;28;86315;-65
2024/01/29 13:14:31;;;;;;;50.75;41.15;;;27.80;35.90;;;;;;6167907;28;83539;-53
2024/01/29 13:17:31;;;;;;;43.63;33.17;;;28.00;35.00;;;;;;6167377;28;83996;-50
2024/01/29 13:20:35;;;;;;;33.38;25.50;;;28.20;34.20;;;;;;6164642;28;86779;-51
2024/01/29 13:23:36;;;;;;;27.45;19.67;;;28.10;33.60;;;;;;6160398;28;85959;-54
2024/01/29 13:26:39;;;;;;;23.27;16.52;;;28.00;33.30;;;;;;6151708;28;83897;-51
2024/01/29 13:29:40;;;;;;;22.00;14.60;;;27.80;33.00;;;;;;6153471;28;90276;-51
2024/01/29 13:32:40;;;;;;;18.02;12.57;;;27.60;32.90;;;;;;6156118;28;83281;-49
2024/01/29 13:35:41;;;;;;;20.08;12.30;;;27.40;32.90;;;;;;6155125;28;83553;-53
2024/01/29 13:38:41;;;;;;;18.50;11.35;;;27.20;32.50;;;;;;6151664;28;90014;-51
2024/01/29 13:41:42;;;;;;;15.00;10.93;;;27.10;33.10;;;;;;6158790;28;84766;-53
2024/01/29 13:44:42;;;;;;;14.57;9.77;;;27.00;33.60;;;;;;6170979;28;89642;-52
2024/01/29 13:47:43;;;;;;;13.48;9.32;;;26.90;34.00;;;;;;6170058;28;83466;-52
2024/01/29 13:50:43;;;;;;;12.23;8.80;;;26.80;34.20;;;;;;6173253;28;81564;-67
2024/01/29 13:53:44;;;;;;;10.25;7.63;;;26.70;34.40;;;;;;6177560;28;81510;-65
2024/01/29 13:56:44;;;;;;;13.05;7.80;;;26.70;34.80;;;;;;6179061;28;82079;-66
2024/01/29 13:59:45;;;;;;;9.23;6.45;;;26.60;35.00;;;;;;6178203;28;83891;-67
2024/01/29 14:02:45;;;;;;;12.68;6.50;;;26.50;35.10;;;;;;6167800;28;80537;-67
2024/01/29 14:05:46;;;;;;;7.93;5.90;;;26.50;35.40;;;;;;6168415;28;81150;-68
2024/01/29 14:08:47;;;;;;;7.40;5.78;;;26.50;35.40;;;;;;6160555;28;81570;-67
2024/01/29 14:11:47;;;;;;;9.35;6.47;;;26.50;35.60;;;;;;6169672;28;81275;-67
2024/01/29 14:14:47;;;;;;;8.40;5.93;;;26.50;35.80;;;;;;6180271;28;80446;-66
2024/01/29 14:17:48;;;;;;;10.27;5.75;;;26.50;35.80;;;;;;6180233;28;81263;-65
2024/01/29 14:20:48;;;;;;;8.35;6.43;;;26.60;35.70;;;;;;6179926;28;80417;-66
2024/01/29 14:23:49;;;;;;;8.73;5.63;;;26.70;35.80;;;;;;6168521;28;80654;-64
2024/01/29 14:26:49;;;;;;;8.00;5.85;;;26.60;35.90;;;;;;6165838;28;81890;-51
2024/01/29 14:29:50;;;;;;;7.53;5.70;;;26.50;36.20;;;;;;6157090;28;80469;-49
2024/01/29 14:32:51;;;;;;;7.13;5.40;;;26.40;36.30;;;;;;6158863;28;80130;-49
2024/01/29 14:35:54;;;;;;;8.80;5.68;;;26.30;36.50;;;;;;6157048;28;80586;-51
2024/01/29 14:38:56;;;;;;;9.77;5.60;;;26.20;36.50;;;;;;6158073;28;80409;-52
2024/01/29 14:41:56;;;;;;;8.75;5.72;;;26.20;36.70;;;;;;6157581;28;81149;-49
2024/01/29 14:44:57;;;;;;;8.15;5.65;;;26.10;36.70;;;;;;6156116;28;81808;-50
2024/01/29 14:47:57;;;;;;;7.40;5.15;;;26.10;36.80;;;;;;6158005;28;80432;-49
2024/01/29 14:50:58;;;;;;;8.40;6.00;;;25.90;36.80;;;;;;6160338;28;81689;-50
2024/01/29 14:53:58;;;;;;;8.27;5.60;;;25.90;36.90;;;;;;6179021;28;80968;-49
2024/01/29 14:56:59;;;;;;;8.85;5.88;;;25.80;37.00;;;;;;6179003;28;82398;-52
2024/01/29 15:00:00;;;;;;;8.70;6.45;;;25.80;37.70;;;;;;6178366;28;80691;-52
2024/01/29 15:03:00;;;;;;;7.93;5.85;;;25.70;37.10;;;;;;6178661;28;81279;-73
2024/01/29 15:06:01;;;;;;;8.85;5.68;;;25.60;37.30;;;;;;6168937;28;80324;-74
2024/01/29 15:09:03;;;;;;;12.55;6.30;;;25.50;37.50;;;;;;6165686;28;82283;-75
2024/01/29 15:12:04;;;;;;;14.38;6.47;;;25.30;37.70;;;;;;6161677;28;80355;-71
2024/01/29 15:15:04;;;;;;;17.58;6.28;;;25.20;38.10;;;;;;6152969;28;81468;-69
2024/01/29 15:18:05;;;;;;;10.48;6.22;;;25.10;38.30;;;;;;6154334;28;81088;-69
2024/01/29 15:21:05;;;;;;;11.15;6.13;;;25.00;39.40;;;;;;6156113;28;80458;-51
2024/01/29 15:24:06;;;;;;;14.85;6.30;;;24.90;39.00;;;;;;6153474;28;82338;-51
2024/01/29 15:27:06;;;;;;;12.77;5.93;;;24.90;39.00;;;;;;6144850;28;81261;-49